sensor_id;sensor_type;location;lat;lon;timestamp;P1;durP1;ratioP1;P2;durP2;ratioP2
42666;SDS011;28280;49.646;14.130;2023-07-24T00:07:20;5.55;;;3.40;;
42666;SDS011;28280;49.646;14.130;2023-07-24T00:17:41;5.95;;;3.47;;
42666;SDS011;28280;49.646;14.130;2023-07-24T00:28:02;5.53;;;3.70;;
42666;SDS011;28280;49.646;14.130;2023-07-24T00:38:24;4.45;;;3.28;;
42666;SDS011;28280;49.646;14.130;2023-07-24T00:48:45;5.13;;;3.10;;
42666;SDS011;28280;49.646;14.130;2023-07-24T00:59:07;4.78;;;3.33;;
42666;SDS011;28280;49.646;14.130;2023-07-24T01:09:28;5.25;;;3.80;;
42666;SDS011;28280;49.646;14.130;2023-07-24T01:19:52;5.50;;;3.47;;
42666;SDS011;28280;49.646;14.130;2023-07-24T01:30:17;5.10;;;3.45;;
42666;SDS011;28280;49.646;14.130;2023-07-24T01:40:40;4.57;;;3.37;;
42666;SDS011;28280;49.646;14.130;2023-07-24T01:51:02;6.97;;;3.80;;
42666;SDS011;28280;49.646;14.130;2023-07-24T02:01:24;4.45;;;3.28;;
42666;SDS011;28280;49.646;14.130;2023-07-24T02:11:45;5.30;;;3.60;;
42666;SDS011;28280;49.646;14.130;2023-07-24T02:22:06;6.45;;;3.72;;
42666;SDS011;28280;49.646;14.130;2023-07-24T02:32:28;6.65;;;4.00;;
42666;SDS011;28280;49.646;14.130;2023-07-24T02:42:50;5.47;;;3.58;;
42666;SDS011;28280;49.646;14.130;2023-07-24T02:53:11;8.63;;;4.60;;
42666;SDS011;28280;49.646;14.130;2023-07-24T03:03:33;5.88;;;4.07;;
42666;SDS011;28280;49.646;14.130;2023-07-24T03:13:55;6.22;;;4.65;;
42666;SDS011;28280;49.646;14.130;2023-07-24T03:24:17;6.28;;;4.38;;
42666;SDS011;28280;49.646;14.130;2023-07-24T03:34:38;8.05;;;5.13;;
42666;SDS011;28280;49.646;14.130;2023-07-24T03:45:00;8.05;;;5.10;;
42666;SDS011;28280;49.646;14.130;2023-07-24T03:55:22;7.80;;;5.00;;
42666;SDS011;28280;49.646;14.130;2023-07-24T04:05:43;6.43;;;4.45;;
42666;SDS011;28280;49.646;14.130;2023-07-24T04:16:05;7.40;;;4.80;;
42666;SDS011;28280;49.646;14.130;2023-07-24T04:26:26;8.65;;;5.68;;
42666;SDS011;28280;49.646;14.130;2023-07-24T04:36:48;7.60;;;4.82;;
42666;SDS011;28280;49.646;14.130;2023-07-24T04:47:09;7.25;;;5.13;;
42666;SDS011;28280;49.646;14.130;2023-07-24T04:57:31;7.65;;;5.18;;
42666;SDS011;28280;49.646;14.130;2023-07-24T05:07:52;8.27;;;5.72;;
42666;SDS011;28280;49.646;14.130;2023-07-24T05:18:13;7.70;;;5.05;;
42666;SDS011;28280;49.646;14.130;2023-07-24T05:28:35;6.90;;;4.85;;
42666;SDS011;28280;49.646;14.130;2023-07-24T05:38:57;7.03;;;4.90;;
42666;SDS011;28280;49.646;14.130;2023-07-24T05:49:18;6.82;;;4.28;;
42666;SDS011;28280;49.646;14.130;2023-07-24T05:59:40;7.72;;;4.75;;
42666;SDS011;28280;49.646;14.130;2023-07-24T06:10:01;7.20;;;4.95;;
42666;SDS011;28280;49.646;14.130;2023-07-24T06:20:23;8.13;;;5.20;;
42666;SDS011;28280;49.646;14.130;2023-07-24T06:30:44;7.57;;;5.20;;
42666;SDS011;28280;49.646;14.130;2023-07-24T06:41:06;7.35;;;5.00;;
42666;SDS011;28280;49.646;14.130;2023-07-24T06:51:27;6.45;;;4.80;;
42666;SDS011;28280;49.646;14.130;2023-07-24T07:01:48;8.30;;;5.13;;
42666;SDS011;28280;49.646;14.130;2023-07-24T07:12:10;7.03;;;4.97;;
42666;SDS011;28280;49.646;14.130;2023-07-24T07:22:31;7.82;;;4.65;;
42666;SDS011;28280;49.646;14.130;2023-07-24T07:32:53;7.68;;;4.80;;
42666;SDS011;28280;49.646;14.130;2023-07-24T07:43:16;7.57;;;4.80;;
42666;SDS011;28280;49.646;14.130;2023-07-24T07:53:38;7.20;;;4.82;;
42666;SDS011;28280;49.646;14.130;2023-07-24T08:03:59;7.15;;;4.88;;
42666;SDS011;28280;49.646;14.130;2023-07-24T08:14:20;8.80;;;5.28;;
42666;SDS011;28280;49.646;14.130;2023-07-24T08:24:41;8.55;;;5.35;;
42666;SDS011;28280;49.646;14.130;2023-07-24T08:35:03;6.70;;;4.70;;
42666;SDS011;28280;49.646;14.130;2023-07-24T08:45:24;7.65;;;5.00;;
42666;SDS011;28280;49.646;14.130;2023-07-24T08:55:47;7.80;;;4.95;;
42666;SDS011;28280;49.646;14.130;2023-07-24T09:06:10;9.00;;;5.75;;
42666;SDS011;28280;49.646;14.130;2023-07-24T09:16:31;7.68;;;5.35;;
42666;SDS011;28280;49.646;14.130;2023-07-24T09:26:54;9.43;;;6.37;;
42666;SDS011;28280;49.646;14.130;2023-07-24T09:47:52;8.70;;;5.88;;
42666;SDS011;28280;49.646;14.130;2023-07-24T09:58:20;7.68;;;5.30;;
42666;SDS011;28280;49.646;14.130;2023-07-24T10:08:43;9.30;;;5.83;;
42666;SDS011;28280;49.646;14.130;2023-07-24T10:19:12;7.97;;;5.60;;
42666;SDS011;28280;49.646;14.130;2023-07-24T10:29:35;11.00;;;5.68;;
42666;SDS011;28280;49.646;14.130;2023-07-24T10:39:57;9.17;;;5.43;;
42666;SDS011;28280;49.646;14.130;2023-07-24T10:50:18;9.25;;;5.82;;
42666;SDS011;28280;49.646;14.130;2023-07-24T11:00:40;9.15;;;6.13;;
42666;SDS011;28280;49.646;14.130;2023-07-24T11:11:03;8.38;;;5.68;;
42666;SDS011;28280;49.646;14.130;2023-07-24T11:21:26;8.23;;;5.60;;
42666;SDS011;28280;49.646;14.130;2023-07-24T11:31:54;9.52;;;5.55;;
42666;SDS011;28280;49.646;14.130;2023-07-24T11:42:15;9.82;;;6.10;;
42666;SDS011;28280;49.646;14.130;2023-07-24T11:52:37;10.95;;;6.25;;
42666;SDS011;28280;49.646;14.130;2023-07-24T12:02:59;10.53;;;6.97;;
42666;SDS011;28280;49.646;14.130;2023-07-24T12:13:22;7.53;;;5.90;;
42666;SDS011;28280;49.646;14.130;2023-07-24T12:23:44;9.90;;;6.60;;
42666;SDS011;28280;49.646;14.130;2023-07-24T12:34:05;10.85;;;6.78;;
42666;SDS011;28280;49.646;14.130;2023-07-24T12:44:26;10.15;;;6.47;;
42666;SDS011;28280;49.646;14.130;2023-07-24T12:54:48;9.07;;;6.10;;
42666;SDS011;28280;49.646;14.130;2023-07-24T13:05:22;7.82;;;5.22;;
42666;SDS011;28280;49.646;14.130;2023-07-24T13:15:43;8.55;;;5.82;;
42666;SDS011;28280;49.646;14.130;2023-07-24T13:26:04;7.50;;;5.63;;
42666;SDS011;28280;49.646;14.130;2023-07-24T13:36:25;7.22;;;5.18;;
42666;SDS011;28280;49.646;14.130;2023-07-24T13:46:47;9.35;;;5.00;;
42666;SDS011;28280;49.646;14.130;2023-07-24T13:57:09;6.05;;;4.57;;
42666;SDS011;28280;49.646;14.130;2023-07-24T14:07:31;7.07;;;4.53;;
42666;SDS011;28280;49.646;14.130;2023-07-24T14:17:52;7.72;;;4.18;;
42666;SDS011;28280;49.646;14.130;2023-07-24T14:28:14;6.40;;;4.18;;
42666;SDS011;28280;49.646;14.130;2023-07-24T14:38:35;8.82;;;4.60;;
42666;SDS011;28280;49.646;14.130;2023-07-24T14:48:56;6.53;;;4.45;;
42666;SDS011;28280;49.646;14.130;2023-07-24T14:59:19;5.78;;;4.07;;
42666;SDS011;28280;49.646;14.130;2023-07-24T15:09:40;5.30;;;3.70;;
42666;SDS011;28280;49.646;14.130;2023-07-24T15:20:02;5.15;;;3.40;;
42666;SDS011;28280;49.646;14.130;2023-07-24T15:30:24;4.85;;;3.53;;
42666;SDS011;28280;49.646;14.130;2023-07-24T15:40:45;4.30;;;3.00;;
42666;SDS011;28280;49.646;14.130;2023-07-24T15:51:07;4.70;;;2.95;;
42666;SDS011;28280;49.646;14.130;2023-07-24T16:01:28;4.65;;;3.45;;
42666;SDS011;28280;49.646;14.130;2023-07-24T16:11:50;4.38;;;2.90;;
42666;SDS011;28280;49.646;14.130;2023-07-24T16:22:12;4.22;;;2.85;;
42666;SDS011;28280;49.646;14.130;2023-07-24T16:32:37;4.38;;;2.95;;
42666;SDS011;28280;49.646;14.130;2023-07-24T16:43:08;3.58;;;2.90;;
42666;SDS011;28280;49.646;14.130;2023-07-24T16:53:30;3.83;;;2.55;;
42666;SDS011;28280;49.646;14.130;2023-07-24T17:03:51;3.42;;;2.33;;
42666;SDS011;28280;49.646;14.130;2023-07-24T17:14:16;2.65;;;2.15;;
42666;SDS011;28280;49.646;14.130;2023-07-24T17:24:37;4.05;;;2.63;;
42666;SDS011;28280;49.646;14.130;2023-07-24T17:34:59;4.35;;;2.55;;
42666;SDS011;28280;49.646;14.130;2023-07-24T17:45:20;3.90;;;2.30;;
42666;SDS011;28280;49.646;14.130;2023-07-24T17:55:42;3.85;;;2.65;;
42666;SDS011;28280;49.646;14.130;2023-07-24T18:06:03;3.53;;;2.42;;
42666;SDS011;28280;49.646;14.130;2023-07-24T18:16:25;4.00;;;2.70;;
42666;SDS011;28280;49.646;14.130;2023-07-24T18:26:46;3.67;;;2.50;;
42666;SDS011;28280;49.646;14.130;2023-07-24T18:37:08;4.25;;;2.38;;
42666;SDS011;28280;49.646;14.130;2023-07-24T18:47:30;3.60;;;2.75;;
42666;SDS011;28280;49.646;14.130;2023-07-24T18:57:51;3.90;;;2.63;;
42666;SDS011;28280;49.646;14.130;2023-07-24T19:08:13;4.75;;;2.92;;
42666;SDS011;28280;49.646;14.130;2023-07-24T19:18:35;4.35;;;2.92;;
42666;SDS011;28280;49.646;14.130;2023-07-24T19:28:56;3.30;;;2.35;;
42666;SDS011;28280;49.646;14.130;2023-07-24T19:39:17;3.60;;;2.53;;
42666;SDS011;28280;49.646;14.130;2023-07-24T19:49:39;3.83;;;2.28;;
42666;SDS011;28280;49.646;14.130;2023-07-24T20:00:01;4.35;;;2.85;;
42666;SDS011;28280;49.646;14.130;2023-07-24T20:10:24;4.17;;;2.70;;
42666;SDS011;28280;49.646;14.130;2023-07-24T20:20:46;3.85;;;2.85;;
42666;SDS011;28280;49.646;14.130;2023-07-24T20:31:08;4.32;;;2.33;;
42666;SDS011;28280;49.646;14.130;2023-07-24T20:41:29;3.47;;;2.45;;
42666;SDS011;28280;49.646;14.130;2023-07-24T20:51:51;5.13;;;2.83;;
42666;SDS011;28280;49.646;14.130;2023-07-24T21:02:13;4.53;;;2.95;;
42666;SDS011;28280;49.646;14.130;2023-07-24T21:12:35;4.03;;;2.53;;
42666;SDS011;28280;49.646;14.130;2023-07-24T21:22:56;4.65;;;2.95;;
42666;SDS011;28280;49.646;14.130;2023-07-24T21:33:18;5.30;;;2.72;;
42666;SDS011;28280;49.646;14.130;2023-07-24T21:43:39;4.03;;;2.40;;
42666;SDS011;28280;49.646;14.130;2023-07-24T21:54:00;3.70;;;2.60;;
42666;SDS011;28280;49.646;14.130;2023-07-24T22:04:22;3.38;;;2.60;;
42666;SDS011;28280;49.646;14.130;2023-07-24T22:14:43;4.03;;;2.75;;
42666;SDS011;28280;49.646;14.130;2023-07-24T22:25:04;3.45;;;2.47;;
42666;SDS011;28280;49.646;14.130;2023-07-24T22:35:26;4.38;;;3.05;;
42666;SDS011;28280;49.646;14.130;2023-07-24T22:45:49;4.07;;;2.92;;
42666;SDS011;28280;49.646;14.130;2023-07-24T22:56:10;3.45;;;2.70;;
42666;SDS011;28280;49.646;14.130;2023-07-24T23:06:32;3.53;;;2.63;;
42666;SDS011;28280;49.646;14.130;2023-07-24T23:16:53;3.58;;;2.60;;
42666;SDS011;28280;49.646;14.130;2023-07-24T23:27:15;3.50;;;2.47;;
42666;SDS011;28280;49.646;14.130;2023-07-24T23:37:36;4.55;;;3.15;;
42666;SDS011;28280;49.646;14.130;2023-07-24T23:47:57;3.78;;;2.70;;
42666;SDS011;28280;49.646;14.130;2023-07-24T23:58:19;4.15;;;2.90;;
